| Station | Date | Time | Temp (°F) | RH (%) | Dew Pt (°F) | Wind Spd (mph) | Wind Dir (°) | Wind Gust (mph) | Latest Rain (In) | Daily Rain (In) | Daily Max Temp (°F) | Daily Min Temp (°F) |
|---|---|---|---|---|---|---|---|---|---|---|---|---|
| Bavarian Lion EFW | 5/5/26 | 1015 | 58.9 0.7 | - | - | - | - | - | 0.00 | 0.01 | 59.3 2.2 | 52.1 5.2 |
| Rockpile Lower (Cooley) | 5/5/26 | 1000 | 55.0 3.4 | 78 14 | 48.3 2.0 | 2.7 1.0 | W | 281 | 5.0 3.9 | 0.00 | 0.00 | 56.0 3.7 | 48.6 0.1 |
| Rockpile Upper (Cooley) | 5/5/26 | 1015 | 51.2 2.8 | 86 14 | 47.1 2.1 | 1.9 2.3 | WNW | 288 | 6.1 2.6 | 0.00 | 0.00 | 52.8 1.9 | 45.0 0.4 |
| Lower Dry Creek Valley | 5/5/26 | 1015 | 63.1 2.5 | 61 9 | 49.4 2.0 | 1.8 0.8 | NE | 34 | 6.2 3.6 | 0.00 | 0.01 | 64.5 2.0 | 51.7 3.2 |
| Geyserville-South (Nervo Station) | 5/5/26 | 1015 | 62.8 2.6 | - | - | 2.3 1.5 | N | 0 | 5.4 4.4 | 0.00 | 0.00 | 64.8 2.2 | 50.5 0.4 |
| Franz Valley (Stornetta) | 5/5/26 | 1015 | 57.6 1.0 | 78 9 | 50.6 2.2 | 1.3 1.0 | N | 356 | 3.5 3.0 | 0.00 | 0.05 | 57.7 1.4 | 51.4 5.6 |
| Geyserville (Ranch 3) | 5/5/26 | 1015 | 61.3 2.4 | 66 11 | 49.8 2.4 | 3.4 2.3 | NW | 326 | 6.2 3.6 | 0.00 | 0.00 | 61.8 2.1 | 52.1 0.5 |
| Geyserville-North (Hoffman) | 5/5/26 | 1000 | 61.9 1.0 | 70 9 | 52.2 2.6 | 3.0 1.1 | N | 11 | 7.4 1.7 | 0.00 | 0.00 | 64.0 0.6 | 51.1 0.2 |
| Knights Valley (Bavarian Lion) | 5/5/26 | 1015 | 58.9 0.4 | 73 5 | 50.3 1.5 | 1.7 0.3 | ENE | 67 | 3.8 2.7 | 0.00 | 0.01 | 59.4 0.8 | 51.3 4.5 |
| HWY 128/Chalk Hill Rd (Landslide) | 5/5/26 | 1000 | 60.0 0.3 | 70 0 | 50.4 0.5 | 2.1 0.6 | NW | 310 | 4.2 2.7 | 0.00 | 0.02 | 60.2 0.5 | 52.4 1.9 |
| Newman Knights Valley | 5/5/26 | 1000 | 57.0 1.3 | 78 3 | 50.4 0.2 | 1.0 0.6 | SSE | 164 | 2.7 2.5 | 0.00 | 0.01 | 57.4 1.7 | 52.6 2.0 |
| Jimtown-North (Piccolo Ranch 15) | 5/5/26 | 1015 | 61.7 0.1 | 65 2 | 49.8 0.9 | 1.6 0.5 | NNE | 26 | 4.8 0.7 | 0.00 | 0.00 | 65.0 0.9 | 52.1 1.1 |
| Peterson (Ranch 09) | 5/5/26 | 1015 | 59.6 3.2 | 66 11 | 48.1 2.1 | 1.9 2.8 | NNE | 20 | 4.5 4.6 | 0.00 | 0.00 | 62.0 2.4 | 51.7 1.9 |
| Cloverdale-SE (Ranch 38) | 5/5/26 | 1015 | 59.4 0.1 | 73 6 | 50.9 2.3 | 6.0 2.9 | NNW | 331 | 10.8 3.4 | 0.00 | 0.00 | 60.0 0.3 | 50.2 0.6 |
| Geyserville-East (Ranch 40) | 5/5/26 | 1015 | 61.0 1.5 | 73 7 | 52.2 1.3 | 1.9 1.8 | NNW | 338 | 5.2 3.2 | 0.00 | 0.00 | 62.5 1.2 | 49.9 0.7 |
| N Chalk Hill Rd (Ranch 63) | 5/5/26 | 1015 | 59.3 3.2 | 72 10 | 50.2 0.9 | 1.9 0.5 | SE | 134 | 4.9 0.4 | 0.00 | 0.00 | 59.6 3.7 | 49.0 0.1 |
| Cloverdale-East (Ranch 83) | 5/5/26 | 1015 | 60.6 1.0 | - | - | 3.8 2.4 | NW | 320 | 8.3 3.7 | 0.00 | 0.00 | 61.2 0.8 | 49.3 1.6 |
| Crazy Creek Ranch | 5/5/26 | 1015 | 59.6 2.3 | 76 7 | 52.0 0.2 | 2.1 0.3 | SW | 216 | 5.2 1.0 | 0.00 | 0.00 | 60.4 1.5 | 52.0 0.5 |
| Lytton East (Hill 5) | 5/5/26 | 1015 | 59.6 1.5 | 70 7 | 49.7 1.5 | 2.1 1.1 | SW | 216 | 5.8 1.2 | 0.00 | 0.01 | 59.9 2.1 | 50.6 1.4 |
| Lytton East (Shop Hill Bottom) | 5/5/26 | 1015 | 60.0 0.9 | 67 5 | 48.9 1.4 | 1.1 1.3 | SW | 225 | 3.5 2.4 | 0.00 | 0.00 | 60.4 1.3 | 51.0 2.6 |
| Lytton West Hill (23PS) | 5/5/26 | 1015 | 62.4 1.3 | 66 10 | 51.0 3.4 | 2.9 0.9 | N | 3 | 7.5 2.0 | 0.00 | 0.00 | 63.8 1.2 | 51.7 2.6 |
| Lytton West Lower (Lew 6) | 5/5/26 | 1015 | 60.0 2.1 | 68 7 | 49.5 1.0 | 2.0 0.8 | WNW | 288 | 5.3 7.1 | 0.00 | 0.01 | 60.5 2.7 | 51.3 3.8 |
| Whitton Ranch (201e) | 5/5/26 | 1015 | 61.1 3.1 | 68 12 | 50.4 2.4 | 2.6 0.9 | NE | 38 | 5.2 3.5 | 0.00 | 0.00 | 61.4 3.4 | 51.2 1.4 |
| Upper Dry Creek Valley | 5/5/26 | 1015 | 62.0 0.7 | 65 8 | 50.0 3.0 | 4.3 2.3 | W | 279 | 8.6 2.9 | 0.00 | 0.01 | 62.6 1.1 | 51.3 3.1 |
| Big River | 5/5/26 | 1015 | 58.6 3.0 | 80 13 | 52.4 2.0 | 1.6 1.3 | SSE | 168 | 3.4 5.8 | 0.00 | 0.01 | 58.8 3.4 | 52.0 3.1 |
| Max | 63.1 | 86 | 52.4 | 6.0 | - | 10.8 | 0.00 | 0.05 | 65.0 | 52.6 | ||
| Avg | 59.7 | 71 | 50.2 | 2.4 | - | 5.6 | 0.00 | - | - | - | ||
| Min | 51.2 | 61 | 47.1 | 1.0 | - | 2.7 | 0.00 | 0.00 | 52.8 | 45.0 |
| Station | Date | Time | Temp (°F) | RH (%) | Dew Pt (°F) | Wind Spd (mph) | Wind Dir (°) | Wind Gust (mph) | Latest Rain (In) | Daily Rain (In) | Daily Max Temp (°F) | Daily Min Temp (°F) |
|---|---|---|---|---|---|---|---|---|---|---|---|---|
| Windsor-NW (Ranch 8) | 5/5/26 | 1015 | 59.3 2.7 | 80 9 | 53.0 0.6 | 2.7 2.1 | SW | 231 | 5.0 0.5 | 0.00 | 0.01 | 64.5 2.0 | 52.0 3.4 |
| Windsor-East (Ranch 16) | 5/5/26 | 1015 | 60.4 0.8 | 73 5 | 51.7 2.6 | 1.6 0.7 | ENE | 75 | 4.0 2.5 | 0.00 | 0.03 | 61.4 1.1 | 52.1 5.5 |
| Mark West-North (Ranch 14) | 5/5/26 | 1015 | 59.1 1.6 | 73 10 | 50.6 2.4 | 1.1 0.8 | E | 97 | 3.0 1.3 | 0.00 | 0.05 | 60.9 0.5 | 52.0 4.2 |
| Windsor-SE (Silk Rd) | 5/5/26 | 1015 | 60.7 0.2 | 69 4 | 50.6 1.7 | 2.1 0.9 | ESE | 123 | 5.0 0.9 | 0.00 | 0.01 | 61.0 0.2 | 52.4 6.4 |
| Fulton-NW (Ranch 5) | 5/5/26 | 1015 | 58.8 1.8 | 76 10 | 51.1 2.3 | 1.2 0.2 | SW | 215 | 4.0 0.4 | 0.00 | 0.05 | 59.8 1.6 | 52.1 5.5 |
| Bisordi (Fulton) | 5/5/26 | 1015 | 58.5 1.2 | 81 8 | 52.7 1.8 | 1.9 0.4 | S | 189 | 4.2 0.4 | 0.00 | 0.04 | 58.9 1.0 | 52.4 6.0 |
| Windsor-South (Laughlin Rd) | 5/4/26 | 1515 | 70.3 | 46 | 48.5 | - | - | - | 0.00 | - | 71.4 | 51.0 |
| Fulton-SE (Barnes Rd) | 5/5/26 | 1015 | 60.2 0.4 | 74 8 | 52.0 3.3 | 0.0 0.0 | N | 0 | 0.0 0.0 | 0.00 | 0.08 | 61.2 1.2 | 52.2 5.5 |
| Fulton-SW (Ranch 21) | 5/5/26 | 1015 | 59.4 0.4 | 73 5 | 50.6 1.6 | 0.7 1.4 | WNW | 296 | 2.4 2.1 | 0.00 | 0.04 | 59.6 0.5 | 52.1 4.7 |
| NW Santa Rosa (Piner Road) | 5/5/26 | 1015 | 58.8 1.3 | 82 8 | 53.5 1.4 | 0.5 1.0 | N | 360 | 2.4 2.3 | 0.00 | 0.00 | 59.7 1.1 | 52.1 5.4 |
| River Rd South (Denner Ranch) | 5/5/26 | 1015 | 59.9 2.5 | 68 6 | 49.4 0.1 | 1.6 0.3 | NW | 313 | 4.2 1.1 | - | - | 60.7 2.6 | 51.5 6.5 |
| West Santa Rosa (LOV Vineyard) | 5/5/26 | 1015 | 59.1 0.1 | 75 5 | 51.2 2.0 | 1.6 0.2 | WSW | 245 | 3.9 1.0 | 0.00 | 0.04 | 59.2 0.1 | 52.2 5.8 |
| Guerneville Rd (Prokopakis) | 5/5/26 | 1015 | 59.9 2.4 | 74 11 | 51.8 2.2 | - | - | - | 0.00 | 0.05 | 60.4 2.9 | 52.7 6.0 |
| SunnyView Vineyard (SCWC) | 5/5/26 | 1015 | 59.7 1.0 | 72 5 | 50.6 1.1 | 1.5 0.2 | W | 276 | 4.8 0.6 | 0.00 | 0.06 | 60.0 1.7 | 51.9 7.9 |
| Guerneville Rd West (Balletto) | 5/5/26 | 1015 | 58.9 2.0 | 77 6 | 51.6 0.1 | 2.4 0.6 | WSW | 247 | 4.8 0.0 | 0.00 | 0.04 | 59.6 1.4 | 52.4 7.2 |
| Sanchietti Ranch | 5/5/26 | 1015 | 60.2 0.6 | 79 4 | 53.6 0.7 | 1.6 1.5 | NNW | 332 | 3.5 2.1 | 0.00 | 0.07 | 60.2 0.5 | 53.2 6.0 |
| Occidental Rd (Sebastopol) | 5/5/26 | 1015 | 59.7 0.8 | 100 0 | 59.8 0.8 | 2.6 0.5 | WSW | 241 | 7.2 0.9 | 0.00 | 0.04 | 60.2 0.6 | 52.0 7.8 |
| Harper's Rest (Windsor-West) | 5/5/26 | 1015 | 58.7 2.4 | 74 7 | 50.5 0.3 | 2.2 0.5 | S | 178 | 4.6 1.1 | 0.00 | 0.03 | 59.4 2.3 | 50.7 5.9 |
| Lower Westside Rd (Ranch 12) | 5/5/26 | 1015 | 59.2 2.6 | 76 12 | 51.8 2.0 | 2.0 0.0 | SSW | 208 | 4.2 1.1 | 0.00 | 0.02 | 60.1 3.1 | 51.6 5.8 |
| Guerneville (Laughlin Rd) | 5/5/26 | 1015 | 59.9 4.4 | 67 12 | 48.9 0.9 | 2.8 0.4 | NW | 320 | 8.3 2.5 | 0.00 | 0.01 | 60.4 3.9 | 50.8 3.9 |
| Korbel (Winery) | 5/5/26 | 1015 | 60.2 4.0 | 72 16 | 51.0 2.8 | 2.2 0.4 | W | 281 | 5.0 1.2 | 0.00 | 0.00 | 60.5 3.7 | 51.4 3.1 |
| Forestville (Shone Farms) | 5/5/26 | 1015 | 58.6 2.5 | 76 11 | 51.2 1.7 | 2.1 0.1 | WSW | 242 | 5.9 0.9 | 0.00 | 0.01 | 59.8 3.0 | 51.1 5.4 |
| Forestville-NE (Ranch 30) | 5/5/26 | 1015 | 59.3 4.3 | 78 14 | 52.4 1.3 | 3.4 0.9 | W | 279 | 7.1 1.2 | 0.00 | 0.02 | 60.2 3.6 | 51.2 6.6 |
| Foggy Bend (Ranch 41) | 5/5/26 | 1015 | 59.0 2.0 | 79 8 | 52.4 0.8 | 3.7 1.5 | W | 262 | 7.6 1.0 | 0.00 | 0.02 | 59.2 2.7 | 52.6 6.6 |
| Last Stop | 5/5/26 | 1015 | 58.9 3.3 | 75 8 | 51.1 0.2 | 2.4 0.4 | WNW | 296 | 5.6 0.7 | 0.00 | 0.02 | 59.1 3.2 | 52.0 8.8 |
| Green Valley Vineyard | 5/5/26 | 1015 | 59.4 2.4 | 71 11 | 49.9 2.0 | 3.5 1.2 | W | 261 | 7.9 0.2 | 0.00 | 0.03 | 60.0 2.5 | 51.0 6.7 |
| Park Royal | 5/5/26 | 1015 | 59.6 0.4 | 72 2 | 50.5 1.3 | - | - | - | 0.00 | 0.06 | 60.0 0.2 | 51.8 6.1 |
| Merino | 5/5/26 | 1015 | 59.1 0.3 | 80 1 | 52.8 0.2 | 1.7 0.3 | NW | 324 | 4.9 0.1 | 0.00 | 0.06 | 59.4 0.3 | 52.1 7.1 |
| Green Valley (Sanchietti) | 5/5/26 | 1015 | 61.1 2.4 | - | - | - | - | - | - | - | 61.4 3.5 | 52.4 9.2 |
| Keefer Ranch (Green Valley) | 5/5/26 | 1015 | 60.4 1.2 | 72 10 | 51.5 2.7 | - | - | - | 0.00 | 0.03 | 61.6 0.2 | 52.2 8.5 |
| Graton-West (Dutton Ranch) | 5/5/26 | 1015 | 60.6 2.1 | 100 26 | 60.6 6.5 | 2.5 0.5 | NW | 307 | 6.1 1.1 | 0.00 | 0.04 | 62.1 3.4 | 52.2 7.9 |
| Graton-South (Mill Station Rd) | 5/5/26 | 1015 | 59.4 0.6 | 69 7 | 49.4 2.0 | 0.7 0.4 | NW | 322 | 3.7 1.3 | 0.00 | 0.04 | 59.8 0.8 | 51.7 9.2 |
| Occidental (Horseshoe Bend) | 5/5/26 | 1015 | 57.3 3.0 | 76 12 | 49.7 1.8 | - | - | - | 0.00 | 0.04 | 59.0 1.8 | 50.3 3.9 |
| Sexton Valley (Jacqueline's Blk) | 5/5/26 | 1015 | 59.2 0.8 | 74 1 | 50.8 1.2 | 3.0 1.1 | NW | 305 | 6.2 0.3 | 0.00 | 0.04 | 59.4 1.1 | 52.2 8.4 |
| Sebastopol Hills (Burnside Rd) | 5/5/26 | 1015 | 57.1 0.4 | 78 3 | 50.4 1.2 | 1.9 1.2 | NW | 313 | 4.0 2.8 | 0.01 | 0.05 | 57.2 1.1 | 51.0 3.2 |
| Pleasant Hill | 5/5/26 | 1015 | 59.0 0.2 | 70 3 | 49.2 1.4 | 2.5 0.3 | WNW | 282 | 5.4 1.8 | 0.00 | 0.04 | 59.9 0.5 | 51.0 6.3 |
| Seaview/Fort Ross (Hirsch) | 5/5/26 | 1015 | 49.9 4.9 | 96 20 | 48.7 1.3 | 2.8 1.8 | N | 357 | 5.1 2.8 | 0.00 | 0.00 | 50.1 4.9 | 46.6 0.4 |
| Max | 61.1 | 100 | 60.6 | 3.7 | - | 8.3 | 0.01 | 0.08 | 64.5 | 53.2 | ||
| Avg | 59.1 | 77 | 51.6 | 2.0 | - | 4.8 | 0.00 | - | - | - | ||
| Min | 49.9 | 67 | 48.7 | 0.0 | - | 0.0 | 0.00 | 0.00 | 50.1 | 46.6 |
| Station | Date | Time | Temp (°F) | RH (%) | Dew Pt (°F) | Wind Spd (mph) | Wind Dir (°) | Wind Gust (mph) | Latest Rain (In) | Daily Rain (In) | Daily Min Temp (°F) | Daily Max Temp (°F) |
|---|---|---|---|---|---|---|---|---|---|---|---|---|
| Upper Rincon Valley | 5/5/26 | 1015 | 53.0 2.0 | 88 12 | 49.4 1.9 | 1.9 0.4 | SSW | 204 | 4.5 1.1 | 0.00 | 0.00 | 49.1 3.6 | 53.4 2.2 |
| Lower Bennett Valley | 5/5/26 | 1015 | 57.0 1.6 | 82 8 | 51.6 1.3 | 1.7 2.3 | N | 354 | 5.3 3.7 | 0.00 | 0.01 | 50.9 10.7 | 57.9 1.8 |
| Kenwood (Wildwood) | 5/5/26 | 1015 | 56.9 1.3 | 81 9 | 51.2 1.7 | 4.2 0.3 | NNW | 339 | 8.5 0.3 | 0.00 | 0.01 | 51.6 7.6 | 57.2 2.0 |
| Crane Creek (Ranch 62) | 5/5/26 | 1015 | 58.7 0.2 | 79 5 | 52.2 1.8 | 0.5 1.2 | S | 179 | 2.6 2.1 | 0.00 | 0.01 | 51.8 6.3 | 59.1 0.2 |
| Rohnert Park-West (Stony Point) | 5/5/26 | 1015 | 59.1 2.2 | 78 15 | 52.1 2.7 | 1.1 0.7 | NW | 307 | 5.6 0.8 | 0.00 | 0.00 | 52.3 9.1 | 59.1 2.2 |
| Rice-Spivak Vineyard | 5/5/26 | 1015 | 59.7 0.3 | - | - | - | - | - | - | - | 51.8 10.5 | 60.2 0.6 |
| Cartograph Wines Base | 5/5/26 | 1015 | 58.0 0.1 | 80 7 | 51.8 2.1 | 3.7 0.1 | WSW | 246 | 8.6 0.3 | 0.00 | 0.01 | 51.6 4.1 | 58.1 0.2 |
| Cartograph Wines Remote | 5/5/26 | 1015 | 59.0 1.8 | - | - | - | - | - | - | - | 51.8 5.5 | 59.2 1.6 |
| Penngrove (Asellus) | 5/5/26 | 1015 | 58.2 0.9 | 77 2 | 51.1 0.1 | 3.0 1.5 | NNW | 330 | 5.8 2.1 | 0.00 | 0.00 | 51.6 10.2 | 58.4 1.4 |
| Sonoma Valley (Bedrock) | 5/5/26 | 1000 | 56.3 0.7 | 80 11 | 50.3 3.2 | - | - | - | 0.00 | 0.02 | 50.5 7.5 | 56.9 0.9 |
| Sonoma-West (Arnold) | 5/5/26 | 1015 | 59.8 1.1 | 73 8 | 51.1 2.2 | 1.5 2.8 | WNW | 287 | 4.1 6.4 | 0.00 | 0.00 | 52.3 10.2 | 59.8 1.5 |
| Sonoma Valley HS | 5/5/26 | 1015 | 57.4 2.5 | 92 18 | 55.1 3.5 | 1.6 0.5 | NW | 314 | 3.5 3.6 | 0.00 | 0.01 | 52.0 8.5 | 58.0 2.7 |
| Sonoma East (Bundschu01) | 5/5/26 | 1015 | 58.3 2.1 | 79 10 | 51.9 1.8 | 5.5 1.0 | NW | 319 | 11.2 1.1 | 0.01 | 0.03 | 52.3 12.0 | 58.8 1.9 |
| Sonoma-SE (Napoli) | 5/5/26 | 1015 | 58.9 1.9 | 79 12 | 52.4 2.8 | 4.2 0.3 | W | 281 | 7.4 0.7 | 0.00 | 0.02 | 52.2 10.1 | 59.4 2.5 |
| Schellville (Sasaki) | 2/7/26 | 1900 | 53.4 2.2 | 88 10 | 49.9 1.0 | 3.3 1.8 | SW | 225 | 5.8 4.0 | 0.00 | 0.00 | 47.0 0.8 | 62.8 8.4 |
| Petaluma (Ranch 10) | 5/5/26 | 1015 | 59.6 1.8 | 76 9 | 51.9 1.7 | 4.1 0.5 | NW | 316 | 7.9 0.2 | 0.00 | 0.02 | 52.4 11.5 | 59.8 2.4 |
| Carneros (Ranch 71) | 5/5/26 | 1015 | 57.0 2.6 | 81 11 | 51.2 1.5 | 5.6 2.8 | W | 280 | 9.1 3.7 | 0.00 | 0.03 | 51.4 4.3 | 57.6 2.8 |
| Ricci Vineyards (Carneros) | 5/5/26 | 1015 | 58.8 1.7 | 79 10 | 52.4 2.2 | 4.7 3.9 | W | 281 | 8.2 5.3 | 0.00 | 0.04 | 52.1 10.1 | 59.2 2.0 |
| Carneros Upper (Ranch 81) | 5/5/26 | 1015 | 57.0 3.5 | 80 12 | 51.0 0.8 | 5.6 1.3 | W | 275 | 8.8 3.4 | - | - | 51.4 4.6 | 57.0 3.5 |
| Carneros Lower (Ranch 81) | 5/5/26 | 1000 | 55.8 6.0 | 95 26 | 54.3 2.7 | 1.3 0.2 | WNW | 299 | 6.0 0.2 | 0.00 | 0.01 | 52.0 9.4 | 56.3 5.5 |
| Max | 59.8 | 95 | 55.1 | 5.6 | - | 11.2 | 0.01 | 0.04 | 52.4 | 60.2 | ||
| Avg | 57.8 | 81 | 51.8 | 3.1 | - | 6.7 | 0.00 | - | - | - | ||
| Min | 53.0 | 73 | 49.4 | 0.5 | - | 2.6 | 0.00 | 0.00 | 49.1 | 53.4 |